createdAt,value
2017-12-10T00:00:01.729Z,21.06
2017-12-10T00:00:29.697Z,20.98
2017-12-10T00:00:57.650Z,21.03
2017-12-10T00:01:25.659Z,21
2017-12-10T00:01:53.764Z,20.97
2017-12-10T00:02:21.759Z,21
2017-12-10T00:02:49.888Z,21.03
2017-12-10T00:03:17.893Z,20.98
2017-12-10T00:03:45.909Z,20.98
2017-12-10T00:04:13.943Z,21
2017-12-10T00:04:42.029Z,20.96
2017-12-10T00:05:10.035Z,21.01
2017-12-10T00:05:38.060Z,21
2017-12-10T00:06:06.045Z,21
2017-12-10T00:06:34.019Z,21
2017-12-10T00:07:01.719Z,20.91
2017-12-10T00:07:29.717Z,21.01
2017-12-10T00:07:57.820Z,20.91
2017-12-10T00:08:25.723Z,20.93
2017-12-10T00:08:53.823Z,20.98
2017-12-10T00:09:21.927Z,21.01
2017-12-10T00:09:50.023Z,21
2017-12-10T00:10:18.130Z,20.98
2017-12-10T00:10:46.201Z,20.94
2017-12-10T00:11:14.210Z,20.97
2017-12-10T00:11:42.225Z,21.01
2017-12-10T00:12:10.223Z,21.11
2017-12-10T00:12:38.233Z,21
2017-12-10T00:13:06.320Z,21.04
2017-12-10T00:13:34.302Z,21.03
2017-12-10T00:14:02.310Z,21
2017-12-10T00:14:30.302Z,20.97
2017-12-10T00:14:58.277Z,20.94
2017-12-10T00:15:26.275Z,21.04
2017-12-10T00:15:54.193Z,20.97
2017-12-10T00:16:22.300Z,20.93
2017-12-10T00:16:50.416Z,20.97
2017-12-10T00:17:18.549Z,20.97
2017-12-10T00:17:46.649Z,21
2017-12-10T00:18:14.636Z,20.93
2017-12-10T00:18:42.785Z,20.85
2017-12-10T00:19:10.665Z,20.91
2017-12-10T00:19:38.593Z,20.88
2017-12-10T00:20:06.597Z,20.94
2017-12-10T00:20:34.676Z,20.9
2017-12-10T00:21:02.770Z,20.88
2017-12-10T00:21:30.677Z,20.86
2017-12-10T00:21:58.666Z,20.88
2017-12-10T00:22:26.679Z,20.83
2017-12-10T00:22:54.682Z,20.91
2017-12-10T00:23:22.664Z,20.85
2017-12-10T00:23:50.662Z,20.83
2017-12-10T00:24:18.581Z,20.83
2017-12-10T00:24:46.708Z,20.78
2017-12-10T00:25:14.818Z,20.71
2017-12-10T00:25:42.887Z,20.61
2017-12-10T00:26:10.898Z,20.66
2017-12-10T00:26:38.806Z,20.61
2017-12-10T00:27:06.901Z,20.56
2017-12-10T00:27:34.922Z,20.54
2017-12-10T00:28:02.836Z,20.54
2017-12-10T00:28:30.865Z,20.41
2017-12-10T00:28:59.135Z,20.6
2017-12-10T00:29:27.030Z,20.53
2017-12-10T00:29:55.161Z,20.48
2017-12-10T00:30:23.237Z,20.48
2017-12-10T00:30:51.342Z,20.44
2017-12-10T00:31:19.453Z,20.38
2017-12-10T00:31:47.550Z,20.4
2017-12-10T00:32:15.650Z,20.46
2017-12-10T00:32:43.668Z,20.34
2017-12-10T00:33:11.669Z,20.32
2017-12-10T00:33:39.674Z,20.32
2017-12-10T00:34:07.671Z,20.35
2017-12-10T00:34:35.695Z,20.38
2017-12-10T00:35:03.590Z,20.27
2017-12-10T00:35:31.577Z,20.2
2017-12-10T00:35:59.585Z,20.22
2017-12-10T00:36:27.491Z,20.23
2017-12-10T00:36:55.508Z,20.12
2017-12-10T00:37:23.613Z,20.2
2017-12-10T00:37:51.632Z,20.19
2017-12-10T00:38:19.733Z,20.12
2017-12-10T00:38:47.741Z,20.18
2017-12-10T00:39:15.998Z,20.15
2017-12-10T00:39:43.870Z,20.15
2017-12-10T00:40:11.885Z,20.19
2017-12-10T00:40:39.808Z,20.16
2017-12-10T00:41:07.927Z,20.11
2017-12-10T00:41:35.991Z,20.19
2017-12-10T00:42:04.071Z,20.19
2017-12-10T00:42:32.166Z,20.16
2017-12-10T00:43:00.240Z,20.12
2017-12-10T00:43:28.230Z,20.18
2017-12-10T00:43:56.400Z,20.2
2017-12-10T00:44:24.504Z,20.04
2017-12-10T00:44:52.605Z,20.16
2017-12-10T00:45:20.532Z,20.19
2017-12-10T00:45:48.529Z,20.15
2017-12-10T00:46:16.412Z,20.18
2017-12-10T00:46:44.301Z,20.12
2017-12-10T00:47:12.418Z,20.2
2017-12-10T00:47:40.434Z,20.2
2017-12-10T00:48:08.248Z,20.12
2017-12-10T00:48:36.325Z,20.12
2017-12-10T00:49:04.319Z,20.25
2017-12-10T00:49:32.297Z,20.26
2017-12-10T00:50:00.196Z,20.27
2017-12-10T00:50:28.323Z,20.12
2017-12-10T00:50:56.335Z,20.16
2017-12-10T00:51:24.448Z,20.2
2017-12-10T00:51:52.348Z,20.15
2017-12-10T00:52:20.437Z,20.05
2017-12-10T00:52:48.570Z,20.12
2017-12-10T00:53:16.578Z,20.07
2017-12-10T00:53:44.655Z,20.07
2017-12-10T00:54:12.731Z,20.05
2017-12-10T00:54:40.839Z,20.05
2017-12-10T00:55:08.830Z,20.01
2017-12-10T00:55:36.827Z,19.98
2017-12-10T00:56:04.820Z,20.04
2017-12-10T00:56:32.722Z,20.07
2017-12-10T00:57:00.722Z,20
2017-12-10T00:57:28.721Z,20.02
2017-12-10T00:57:56.622Z,20.05
2017-12-10T00:58:24.489Z,20.1
2017-12-10T00:58:52.593Z,20.07
2017-12-10T00:59:20.480Z,20.05
2017-12-10T00:59:48.470Z,20.01
2017-12-10T01:00:16.591Z,20
2017-12-10T01:00:44.597Z,20.04
2017-12-10T01:01:12.701Z,20
2017-12-10T01:01:40.706Z,20.02
2017-12-10T01:02:08.692Z,20.02
2017-12-10T01:02:36.807Z,20.02
2017-12-10T01:03:04.795Z,19.98
2017-12-10T01:03:32.811Z,20.01
2017-12-10T01:04:00.910Z,20.04
2017-12-10T01:04:29.130Z,20.07
2017-12-10T01:04:57.276Z,20.02
2017-12-10T01:05:25.099Z,20.02
2017-12-10T01:05:53.234Z,19.95
2017-12-10T01:06:21.325Z,19.97
2017-12-10T01:06:49.443Z,20.05
2017-12-10T01:07:17.483Z,20.07
2017-12-10T01:07:45.591Z,20.07
2017-12-10T01:08:13.577Z,20.08
2017-12-10T01:08:41.565Z,20.07
2017-12-10T01:09:09.568Z,20.11
2017-12-10T01:09:37.479Z,20.16
2017-12-10T01:10:05.508Z,20.08
2017-12-10T01:10:33.524Z,20.04
2017-12-10T01:11:01.597Z,20.16
2017-12-10T01:11:29.604Z,20.19
2017-12-10T01:11:57.604Z,20.16
2017-12-10T01:12:25.478Z,20.15
2017-12-10T01:12:53.461Z,20.19
2017-12-10T01:13:21.460Z,20.15
2017-12-10T01:13:49.344Z,20.15
2017-12-10T01:14:17.592Z,20.16
2017-12-10T01:14:45.483Z,20.16
2017-12-10T01:15:13.199Z,20.1
2017-12-10T01:15:41.317Z,20.11
2017-12-10T01:16:09.400Z,20.1
2017-12-10T01:16:37.400Z,20.12
2017-12-10T01:17:05.381Z,20.07
2017-12-10T01:17:33.400Z,20.05
2017-12-10T01:18:01.294Z,20.11
2017-12-10T01:18:29.390Z,20.07
2017-12-10T01:18:57.519Z,20.1
2017-12-10T01:19:25.625Z,20.15
2017-12-10T01:19:53.562Z,20.04
2017-12-10T01:20:21.666Z,20.2
2017-12-10T01:20:49.568Z,20.12
2017-12-10T01:21:17.452Z,20.15
2017-12-10T01:21:45.442Z,20.18
2017-12-10T01:22:13.352Z,20.15
2017-12-10T01:22:41.342Z,20.15
2017-12-10T01:23:09.350Z,20.16
2017-12-10T01:23:37.434Z,20.15
2017-12-10T01:24:05.525Z,20.19
2017-12-10T01:24:33.837Z,20.25
2017-12-10T01:25:01.888Z,20.2
2017-12-10T01:25:29.901Z,20.23
2017-12-10T01:25:57.906Z,20.23
2017-12-10T01:26:26.015Z,20.22
2017-12-10T01:26:53.880Z,20.22
2017-12-10T01:27:21.883Z,20.32
2017-12-10T01:27:50.000Z,20.3
2017-12-10T01:28:18.104Z,20.3
2017-12-10T01:28:46.083Z,20.35
2017-12-10T01:29:14.082Z,20.35
2017-12-10T01:29:42.292Z,20.35
2017-12-10T01:30:10.413Z,20.35
2017-12-10T01:30:38.400Z,20.41
2017-12-10T01:31:06.422Z,20.3
2017-12-10T01:31:34.418Z,20.3
2017-12-10T01:32:02.429Z,20.35
2017-12-10T01:32:30.531Z,20.3
2017-12-10T01:32:58.547Z,20.32
2017-12-10T01:33:26.646Z,20.4
2017-12-10T01:33:54.549Z,20.34
2017-12-10T01:34:22.632Z,20.32
2017-12-10T01:34:50.645Z,20.34
2017-12-10T01:35:18.645Z,20.29
2017-12-10T01:35:46.755Z,20.34
2017-12-10T01:36:14.754Z,20.29
2017-12-10T01:36:42.732Z,20.35
2017-12-10T01:37:10.839Z,20.3
2017-12-10T01:37:38.958Z,20.34
2017-12-10T01:38:07.060Z,20.29
2017-12-10T01:38:35.080Z,20.42
2017-12-10T01:39:03.162Z,20.37
2017-12-10T01:39:31.165Z,20.38
2017-12-10T01:39:58.977Z,20.25
2017-12-10T01:40:27.056Z,20.32
2017-12-10T01:40:55.168Z,20.3
2017-12-10T01:41:23.180Z,20.2
2017-12-10T01:41:51.168Z,20.32
2017-12-10T01:42:19.150Z,20.23
2017-12-10T01:42:47.065Z,20.26
2017-12-10T01:43:15.169Z,20.34
2017-12-10T01:43:43.264Z,20.27
2017-12-10T01:44:11.262Z,20.23
2017-12-10T01:44:39.474Z,20.26
2017-12-10T01:45:07.584Z,20.23
2017-12-10T01:45:35.683Z,20.26
2017-12-10T01:46:03.676Z,20.26
2017-12-10T01:46:31.668Z,20.16
2017-12-10T01:46:59.668Z,20.18
2017-12-10T01:47:27.765Z,20.15
2017-12-10T01:47:55.856Z,20.12
2017-12-10T01:48:23.975Z,20.11
2017-12-10T01:48:51.966Z,20.1
2017-12-10T01:49:19.693Z,20.04
2017-12-10T01:49:47.909Z,20.05
2017-12-10T01:50:15.910Z,19.98
2017-12-10T01:50:43.843Z,20.04
2017-12-10T01:51:11.947Z,19.95
2017-12-10T01:51:39.879Z,19.9
2017-12-10T01:52:07.704Z,19.85
2017-12-10T01:52:35.855Z,19.87
2017-12-10T01:53:03.972Z,19.74
2017-12-10T01:53:32.067Z,19.72
2017-12-10T01:54:00.196Z,19.74
2017-12-10T01:54:28.219Z,19.71
2017-12-10T01:54:56.405Z,19.64
2017-12-10T01:55:24.289Z,19.64
2017-12-10T01:55:52.264Z,19.56
2017-12-10T01:56:20.380Z,19.6
2017-12-10T01:56:48.338Z,19.55
2017-12-10T01:57:16.448Z,19.61
2017-12-10T01:57:44.341Z,19.61
2017-12-10T01:58:12.478Z,19.64
2017-12-10T01:58:40.378Z,19.56
2017-12-10T01:59:08.467Z,19.6
2017-12-10T01:59:36.561Z,19.61
2017-12-10T02:00:04.609Z,19.55
2017-12-10T02:00:32.734Z,19.55
2017-12-10T02:01:00.733Z,19.57
2017-12-10T02:01:28.774Z,19.56
2017-12-10T02:01:56.681Z,19.49
2017-12-10T02:02:24.728Z,19.55
2017-12-10T02:02:52.531Z,19.52
2017-12-10T02:03:20.513Z,19.52
2017-12-10T02:03:48.494Z,19.52
2017-12-10T02:04:16.417Z,19.57
2017-12-10T02:04:44.493Z,19.64
2017-12-10T02:05:12.431Z,19.56
2017-12-10T02:05:40.408Z,19.63
2017-12-10T02:06:08.528Z,19.55
2017-12-10T02:06:36.527Z,19.61
2017-12-10T02:07:04.445Z,19.63
2017-12-10T02:07:32.548Z,19.57
2017-12-10T02:08:00.576Z,19.64
2017-12-10T02:08:28.690Z,19.56
2017-12-10T02:08:56.780Z,19.57
2017-12-10T02:09:24.777Z,19.55
2017-12-10T02:09:52.837Z,19.55
2017-12-10T02:10:20.859Z,19.43
2017-12-10T02:10:48.881Z,19.52
2017-12-10T02:11:17.002Z,19.5
2017-12-10T02:11:45.088Z,19.55
2017-12-10T02:12:12.910Z,19.5
2017-12-10T02:12:41.004Z,19.55
2017-12-10T02:13:09.098Z,19.5
2017-12-10T02:13:37.220Z,19.45
2017-12-10T02:14:05.044Z,19.45
2017-12-10T02:14:33.044Z,19.42
2017-12-10T02:15:01.272Z,19.5
2017-12-10T02:15:29.340Z,19.38
2017-12-10T02:15:57.438Z,19.34
2017-12-10T02:16:25.551Z,19.34
2017-12-10T02:16:53.708Z,19.3
2017-12-10T02:17:21.718Z,19.35
2017-12-10T02:17:49.830Z,19.37
2017-12-10T02:18:17.931Z,19.24
2017-12-10T02:18:46.049Z,19.31
2017-12-10T02:19:13.929Z,19.19
2017-12-10T02:19:41.963Z,19.23
2017-12-10T02:20:10.098Z,19.25
2017-12-10T02:20:38.207Z,19.23
2017-12-10T02:21:06.202Z,19.23
2017-12-10T02:21:34.307Z,19.12
2017-12-10T02:22:02.321Z,19.15
2017-12-10T02:22:30.171Z,19.1
2017-12-10T02:22:58.080Z,19.12
2017-12-10T02:23:26.099Z,19.13
2017-12-10T02:23:54.073Z,19.16
2017-12-10T02:24:22.020Z,19.13
2017-12-10T02:24:50.205Z,19.16
2017-12-10T02:25:18.178Z,19.09
2017-12-10T02:25:46.080Z,19.15
2017-12-10T02:26:14.181Z,18.99
2017-12-10T02:26:42.299Z,18.99
2017-12-10T02:27:10.299Z,19.06
2017-12-10T02:27:38.311Z,18.93
2017-12-10T02:28:06.403Z,18.94
2017-12-10T02:28:34.506Z,19
2017-12-10T02:29:02.415Z,18.97
2017-12-10T02:29:30.530Z,18.96
2017-12-10T02:29:58.521Z,18.96
2017-12-10T02:30:26.501Z,18.99
2017-12-10T02:30:54.610Z,18.99
2017-12-10T02:31:22.508Z,18.94
2017-12-10T02:31:50.384Z,19
2017-12-10T02:32:18.299Z,18.87
2017-12-10T02:32:46.374Z,18.89
2017-12-10T02:33:14.381Z,18.89
2017-12-10T02:33:42.385Z,18.97
2017-12-10T02:34:10.316Z,18.93
2017-12-10T02:34:38.422Z,18.82
2017-12-10T02:35:06.606Z,18.84
2017-12-10T02:35:34.717Z,18.79
2017-12-10T02:36:02.729Z,18.81
2017-12-10T02:36:30.707Z,18.79
2017-12-10T02:36:58.601Z,18.78
2017-12-10T02:37:26.616Z,18.75
2017-12-10T02:37:54.445Z,18.75
2017-12-10T02:38:22.545Z,18.75
2017-12-10T02:38:50.652Z,18.68
2017-12-10T02:39:18.671Z,18.76
2017-12-10T02:39:46.685Z,18.72
2017-12-10T02:40:14.821Z,18.71
2017-12-10T02:40:42.919Z,18.74
2017-12-10T02:41:10.917Z,18.72
2017-12-10T02:41:38.886Z,18.69
2017-12-10T02:42:06.797Z,18.71
2017-12-10T02:42:34.802Z,18.69
2017-12-10T02:43:02.881Z,18.71
2017-12-10T02:43:30.977Z,18.74
2017-12-10T02:43:58.991Z,18.75
2017-12-10T02:44:27.094Z,18.72
2017-12-10T02:44:55.131Z,18.74
2017-12-10T02:45:23.345Z,18.72
2017-12-10T02:45:51.361Z,18.63
2017-12-10T02:46:19.324Z,18.66
2017-12-10T02:46:47.330Z,18.65
2017-12-10T02:47:15.304Z,18.65
2017-12-10T02:47:43.326Z,18.54
2017-12-10T02:48:11.449Z,18.57
2017-12-10T02:48:39.449Z,18.56
2017-12-10T02:49:07.521Z,18.61
2017-12-10T02:49:35.503Z,18.53
2017-12-10T02:50:03.613Z,18.59
2017-12-10T02:50:31.699Z,18.53
2017-12-10T02:50:59.685Z,18.54
2017-12-10T02:51:27.496Z,18.56
2017-12-10T02:51:55.532Z,18.5
2017-12-10T02:52:23.619Z,18.59
2017-12-10T02:52:51.728Z,18.6
2017-12-10T02:53:19.834Z,18.59
2017-12-10T02:53:47.940Z,18.53
2017-12-10T02:54:16.028Z,18.47
2017-12-10T02:54:44.120Z,18.6
2017-12-10T02:55:12.118Z,18.51
2017-12-10T02:55:40.117Z,18.51
2017-12-10T02:56:08.042Z,18.51
2017-12-10T02:56:36.144Z,18.5
2017-12-10T02:57:04.073Z,18.5
2017-12-10T02:57:32.140Z,18.49
2017-12-10T02:58:00.129Z,18.53
2017-12-10T02:58:28.108Z,18.47
2017-12-10T02:58:56.191Z,18.45
2017-12-10T02:59:24.192Z,18.49
2017-12-10T02:59:52.103Z,18.47
2017-12-10T03:00:20.330Z,18.49
2017-12-10T03:00:48.433Z,18.53
2017-12-10T03:01:16.434Z,18.61
2017-12-10T03:01:44.450Z,18.65
2017-12-10T03:02:12.473Z,18.56
2017-12-10T03:02:40.509Z,18.6
2017-12-10T03:03:08.515Z,18.53
2017-12-10T03:03:36.545Z,18.57
2017-12-10T03:04:04.457Z,18.63
2017-12-10T03:04:32.380Z,18.59
2017-12-10T03:05:00.484Z,18.61
2017-12-10T03:05:28.589Z,18.59
2017-12-10T03:05:56.590Z,18.63
2017-12-10T03:06:24.673Z,18.6
2017-12-10T03:06:52.708Z,18.63
2017-12-10T03:07:20.828Z,18.53
2017-12-10T03:07:48.854Z,18.57
2017-12-10T03:08:16.979Z,18.56
2017-12-10T03:08:45.085Z,18.54
2017-12-10T03:09:13.217Z,18.54
2017-12-10T03:09:41.297Z,18.56
2017-12-10T03:10:09.243Z,18.49
2017-12-10T03:10:37.463Z,18.53
2017-12-10T03:11:05.430Z,18.53
2017-12-10T03:11:33.539Z,18.44
2017-12-10T03:12:01.656Z,18.5
2017-12-10T03:12:29.559Z,18.41
2017-12-10T03:12:57.548Z,18.42
2017-12-10T03:13:25.441Z,18.35
2017-12-10T03:13:53.443Z,18.38
2017-12-10T03:14:21.247Z,18.32
2017-12-10T03:14:49.148Z,18.31
2017-12-10T03:15:17.264Z,18.31
2017-12-10T03:15:45.203Z,18.29
2017-12-10T03:16:13.297Z,18.29
2017-12-10T03:16:41.391Z,18.27
2017-12-10T03:17:09.497Z,18.31
2017-12-10T03:17:37.512Z,18.29
2017-12-10T03:18:05.605Z,18.35
2017-12-10T03:18:33.718Z,18.26
2017-12-10T03:19:01.832Z,18.24
2017-12-10T03:19:29.825Z,18.24
2017-12-10T03:19:57.899Z,18.29
2017-12-10T03:20:26.088Z,18.32
2017-12-10T03:20:54.199Z,18.26
2017-12-10T03:21:22.298Z,18.21
2017-12-10T03:21:50.476Z,18.27
2017-12-10T03:22:18.505Z,18.24
2017-12-10T03:22:46.524Z,18.2
2017-12-10T03:23:14.607Z,18.26
2017-12-10T03:23:42.637Z,18.24
2017-12-10T03:24:10.742Z,18.21
2017-12-10T03:24:38.847Z,18.13
2017-12-10T03:25:06.930Z,18.14
2017-12-10T03:25:35.114Z,18.19
2017-12-10T03:26:03.029Z,18.23
2017-12-10T03:26:31.146Z,18.2
2017-12-10T03:26:59.271Z,18.23
2017-12-10T03:27:27.277Z,18.26
2017-12-10T03:27:55.270Z,18.2
2017-12-10T03:28:23.111Z,18.27
2017-12-10T03:28:51.124Z,18.24
2017-12-10T03:29:19.217Z,18.26
2017-12-10T03:29:47.240Z,18.29
2017-12-10T03:30:15.231Z,18.23
2017-12-10T03:30:43.485Z,18.29
2017-12-10T03:31:11.486Z,18.24
2017-12-10T03:31:39.506Z,18.26
2017-12-10T03:32:07.477Z,18.21
2017-12-10T03:32:35.638Z,18.24
2017-12-10T03:33:03.625Z,18.27
2017-12-10T03:33:31.609Z,18.26
2017-12-10T03:33:59.551Z,18.27
2017-12-10T03:34:27.441Z,18.23
2017-12-10T03:34:55.559Z,18.26
2017-12-10T03:35:23.470Z,18.29
2017-12-10T03:35:51.636Z,18.21
2017-12-10T03:36:19.614Z,18.24
2017-12-10T03:36:47.581Z,18.24
2017-12-10T03:37:15.469Z,18.26
2017-12-10T03:37:43.645Z,18.2
2017-12-10T03:38:11.656Z,18.27
2017-12-10T03:38:39.755Z,18.14
2017-12-10T03:39:07.854Z,18.11
2017-12-10T03:39:35.817Z,18.11
2017-12-10T03:40:03.962Z,18.14
2017-12-10T03:40:32.098Z,18.16
2017-12-10T03:41:00.221Z,18.1
2017-12-10T03:41:28.326Z,18.13
2017-12-10T03:41:56.460Z,18.11
2017-12-10T03:42:24.460Z,18.11
2017-12-10T03:42:52.567Z,18.1
2017-12-10T03:43:20.476Z,18.05
2017-12-10T03:43:48.581Z,18.01
2017-12-10T03:44:16.575Z,18.08
2017-12-10T03:44:44.656Z,18.1
2017-12-10T03:45:12.637Z,18.13
2017-12-10T03:45:40.712Z,18.1
2017-12-10T03:46:08.711Z,18.16
2017-12-10T03:46:36.715Z,18.13
2017-12-10T03:47:04.820Z,18.13
2017-12-10T03:47:33.146Z,18.24
2017-12-10T03:48:01.155Z,18.23
2017-12-10T03:48:28.944Z,18.23
2017-12-10T03:48:57.048Z,18.24
2017-12-10T03:49:24.938Z,18.21
2017-12-10T03:49:52.964Z,18.31
2017-12-10T03:50:20.986Z,18.24
2017-12-10T03:50:49.028Z,18.31
2017-12-10T03:51:16.920Z,18.19
2017-12-10T03:51:45.034Z,18.19
2017-12-10T03:52:13.135Z,18.26
2017-12-10T03:52:41.122Z,18.23
2017-12-10T03:53:09.124Z,18.24
2017-12-10T03:53:37.217Z,18.34
2017-12-10T03:54:05.215Z,18.31
2017-12-10T03:54:33.345Z,18.31
2017-12-10T03:55:01.458Z,18.27
2017-12-10T03:55:29.491Z,18.27
2017-12-10T03:55:57.517Z,18.26
2017-12-10T03:56:25.414Z,18.32
2017-12-10T03:56:53.443Z,18.27
2017-12-10T03:57:21.367Z,18.27
2017-12-10T03:57:49.167Z,18.41
2017-12-10T03:58:17.289Z,18.31
2017-12-10T03:58:45.268Z,18.38
2017-12-10T03:59:13.406Z,18.32
2017-12-10T03:59:41.308Z,18.38
2017-12-10T04:00:09.419Z,18.29
2017-12-10T04:00:37.404Z,18.38
2017-12-10T04:01:05.691Z,18.36
2017-12-10T04:01:33.676Z,18.39
2017-12-10T04:02:01.787Z,18.38
2017-12-10T04:02:29.887Z,18.38
2017-12-10T04:02:57.879Z,18.34
2017-12-10T04:03:25.895Z,18.41
2017-12-10T04:03:53.979Z,18.38
2017-12-10T04:04:21.982Z,18.31
2017-12-10T04:04:49.981Z,18.31
2017-12-10T04:05:17.872Z,18.26
2017-12-10T04:05:46.121Z,18.35
2017-12-10T04:06:13.996Z,18.39
2017-12-10T04:06:42.100Z,18.41
2017-12-10T04:07:10.015Z,18.38
2017-12-10T04:07:37.837Z,18.36
2017-12-10T04:08:05.932Z,18.41
2017-12-10T04:08:33.933Z,18.34
2017-12-10T04:09:01.948Z,18.36
2017-12-10T04:09:29.862Z,18.45
2017-12-10T04:09:57.852Z,18.41
2017-12-10T04:10:25.832Z,18.45
2017-12-10T04:10:54.070Z,18.38
2017-12-10T04:11:21.975Z,18.41
2017-12-10T04:11:50.008Z,18.38
2017-12-10T04:12:18.148Z,18.27
2017-12-10T04:12:46.185Z,18.27
2017-12-10T04:13:14.155Z,18.19
2017-12-10T04:13:42.174Z,18.35
2017-12-10T04:14:10.170Z,18.23
2017-12-10T04:14:38.307Z,18.26
2017-12-10T04:15:06.291Z,18.29
2017-12-10T04:15:34.201Z,18.31
2017-12-10T04:16:02.272Z,18.36
2017-12-10T04:16:30.186Z,18.31
2017-12-10T04:16:58.172Z,18.31
2017-12-10T04:17:26.200Z,18.34
2017-12-10T04:17:54.292Z,18.34
2017-12-10T04:18:22.286Z,18.31
2017-12-10T04:18:50.265Z,18.32
2017-12-10T04:19:18.355Z,18.32
2017-12-10T04:19:46.349Z,18.24
2017-12-10T04:20:14.368Z,18.24
2017-12-10T04:20:42.350Z,18.24
2017-12-10T04:21:10.348Z,18.24
2017-12-10T04:21:38.341Z,18.27
2017-12-10T04:22:06.457Z,18.24
2017-12-10T04:22:34.460Z,18.29
2017-12-10T04:23:02.543Z,18.35
2017-12-10T04:23:30.236Z,18.2
2017-12-10T04:23:58.363Z,18.2
2017-12-10T04:24:26.370Z,18.31
2017-12-10T04:24:54.382Z,18.31
2017-12-10T04:25:22.291Z,18.24
2017-12-10T04:25:50.367Z,18.27
2017-12-10T04:26:18.457Z,18.29
2017-12-10T04:26:46.482Z,18.31
2017-12-10T04:27:14.575Z,18.31
2017-12-10T04:27:42.542Z,18.27
2017-12-10T04:28:10.455Z,18.27
2017-12-10T04:28:38.528Z,18.27
2017-12-10T04:29:06.632Z,18.27
2017-12-10T04:29:34.712Z,18.23
2017-12-10T04:30:02.718Z,18.08
2017-12-10T04:30:30.815Z,18.21
2017-12-10T04:30:58.942Z,18.2
2017-12-10T04:31:26.828Z,18.16
2017-12-10T04:31:54.914Z,18.14
2017-12-10T04:32:22.916Z,18.11
2017-12-10T04:32:51.010Z,18.17
2017-12-10T04:33:19.127Z,18.13
2017-12-10T04:33:47.219Z,18.11
2017-12-10T04:34:15.214Z,18.14
2017-12-10T04:34:43.311Z,18.1
2017-12-10T04:35:11.312Z,18.1
2017-12-10T04:35:39.236Z,17.99
2017-12-10T04:36:07.350Z,18.05
2017-12-10T04:36:35.363Z,17.99
2017-12-10T04:37:03.372Z,17.96
2017-12-10T04:37:31.335Z,17.99
2017-12-10T04:37:59.122Z,17.98
2017-12-10T04:38:27.225Z,18.01
2017-12-10T04:38:55.231Z,18.03
2017-12-10T04:39:23.226Z,17.99
2017-12-10T04:39:51.310Z,17.98
2017-12-10T04:40:19.183Z,17.98
2017-12-10T04:40:47.071Z,17.95
2017-12-10T04:41:15.150Z,17.92
2017-12-10T04:41:43.047Z,17.99
2017-12-10T04:42:11.078Z,17.99
2017-12-10T04:42:38.962Z,18.02
2017-12-10T04:43:07.099Z,18.03
2017-12-10T04:43:35.096Z,18.08
2017-12-10T04:44:03.111Z,18.03
2017-12-10T04:44:31.116Z,18.02
2017-12-10T04:44:59.117Z,18.06
2017-12-10T04:45:26.995Z,18.02
2017-12-10T04:45:54.982Z,18.11
2017-12-10T04:46:23.232Z,18.11
2017-12-10T04:46:51.369Z,18.13
2017-12-10T04:47:19.450Z,18.11
2017-12-10T04:47:47.448Z,18.13
2017-12-10T04:48:15.577Z,18.13
2017-12-10T04:48:43.498Z,18.13
2017-12-10T04:49:11.495Z,18.2
2017-12-10T04:49:39.589Z,18.08
2017-12-10T04:50:07.685Z,18.1
2017-12-10T04:50:35.818Z,18.16
2017-12-10T04:51:03.936Z,18.14
2017-12-10T04:51:32.023Z,18.16
2017-12-10T04:52:00.008Z,18.1
2017-12-10T04:52:28.011Z,18.1
2017-12-10T04:52:56.070Z,18.14
2017-12-10T04:53:24.067Z,18.14
2017-12-10T04:53:52.052Z,18.13
2017-12-10T04:54:20.173Z,18.11
2017-12-10T04:54:48.114Z,18.11
2017-12-10T04:55:16.211Z,18.14
2017-12-10T04:55:44.230Z,18.14
2017-12-10T04:56:12.322Z,18.08
2017-12-10T04:56:40.341Z,18.2
2017-12-10T04:57:08.470Z,18.16
2017-12-10T04:57:36.552Z,18.19
2017-12-10T04:58:04.636Z,18.16
2017-12-10T04:58:32.751Z,18.14
2017-12-10T04:59:00.838Z,18.21
2017-12-10T04:59:28.961Z,18.26
2017-12-10T04:59:56.930Z,18.21
2017-12-10T05:00:24.952Z,18.26
2017-12-10T05:00:52.938Z,18.31
2017-12-10T05:01:21.069Z,18.24
2017-12-10T05:01:49.084Z,18.31
2017-12-10T05:02:17.068Z,18.27
2017-12-10T05:02:45.202Z,18.27
2017-12-10T05:03:13.338Z,18.2
2017-12-10T05:03:41.441Z,18.31
2017-12-10T05:04:09.532Z,18.29
2017-12-10T05:04:37.622Z,18.23
2017-12-10T05:05:05.409Z,18.24
2017-12-10T05:05:33.403Z,18.2
2017-12-10T05:06:01.311Z,18.24
2017-12-10T05:06:29.313Z,18.34
2017-12-10T05:06:57.218Z,18.27
2017-12-10T05:07:25.313Z,18.29
2017-12-10T05:07:53.414Z,18.27
2017-12-10T05:08:21.180Z,18.32
2017-12-10T05:08:49.266Z,18.27
2017-12-10T05:09:17.371Z,18.34
2017-12-10T05:09:45.293Z,18.27
2017-12-10T05:10:13.327Z,18.29
2017-12-10T05:10:41.333Z,18.31
2017-12-10T05:11:09.326Z,18.27
2017-12-10T05:11:37.145Z,18.26
2017-12-10T05:12:05.142Z,18.34
2017-12-10T05:12:33.033Z,18.27
2017-12-10T05:13:01.046Z,18.32
2017-12-10T05:13:29.062Z,18.27
2017-12-10T05:13:57.058Z,18.27
2017-12-10T05:14:25.132Z,18.27
2017-12-10T05:14:53.144Z,18.31
2017-12-10T05:15:20.939Z,18.34
2017-12-10T05:15:48.930Z,18.32
2017-12-10T05:16:17.070Z,18.31
2017-12-10T05:16:45.299Z,18.34
2017-12-10T05:17:13.414Z,18.24
2017-12-10T05:17:41.432Z,18.32
2017-12-10T05:18:09.430Z,18.26
2017-12-10T05:18:37.443Z,18.29
2017-12-10T05:19:05.248Z,18.29
2017-12-10T05:19:33.124Z,18.27
2017-12-10T05:20:01.150Z,18.24
2017-12-10T05:20:29.140Z,18.27
2017-12-10T05:20:57.123Z,18.24
2017-12-10T05:21:25.334Z,18.29
2017-12-10T05:21:53.426Z,18.27
2017-12-10T05:22:21.348Z,18.27
2017-12-10T05:22:49.354Z,18.24
2017-12-10T05:23:17.474Z,18.27
2017-12-10T05:23:45.557Z,18.34
2017-12-10T05:24:13.361Z,18.24
2017-12-10T05:24:41.451Z,18.29
2017-12-10T05:25:09.556Z,18.26
2017-12-10T05:25:37.660Z,18.27
2017-12-10T05:26:05.663Z,18.24
2017-12-10T05:26:33.839Z,18.26
2017-12-10T05:27:01.743Z,18.32
2017-12-10T05:27:29.817Z,18.34
2017-12-10T05:27:57.798Z,18.31
2017-12-10T05:28:25.790Z,18.26
2017-12-10T05:28:53.900Z,18.32
2017-12-10T05:29:21.909Z,18.34
2017-12-10T05:29:49.915Z,18.23
2017-12-10T05:30:18.014Z,18.27
2017-12-10T05:30:46.032Z,18.27
2017-12-10T05:31:13.845Z,18.24
2017-12-10T05:31:41.857Z,18.26
2017-12-10T05:32:09.755Z,18.24
2017-12-10T05:32:37.654Z,18.21
2017-12-10T05:33:05.761Z,18.27
2017-12-10T05:33:33.673Z,18.17
2017-12-10T05:34:01.573Z,18.1
2017-12-10T05:34:29.606Z,18.08
2017-12-10T05:34:57.716Z,18.11
2017-12-10T05:35:25.627Z,18.05
2017-12-10T05:35:53.555Z,18.1
2017-12-10T05:36:21.656Z,18.1
2017-12-10T05:36:49.626Z,18.08
2017-12-10T05:37:17.638Z,18.06
2017-12-10T05:37:45.639Z,18.11
2017-12-10T05:38:13.568Z,18.17
2017-12-10T05:38:41.585Z,18.17
2017-12-10T05:39:09.585Z,18.1
2017-12-10T05:39:37.573Z,18.16
2017-12-10T05:40:05.561Z,18.14
2017-12-10T05:40:33.699Z,18.17
2017-12-10T05:41:01.673Z,18.13
2017-12-10T05:41:29.698Z,18.17
2017-12-10T05:41:57.806Z,18.19
2017-12-10T05:42:25.920Z,18.19
2017-12-10T05:42:54.023Z,18.2
2017-12-10T05:43:22.013Z,18.17
2017-12-10T05:43:50.083Z,18.1
2017-12-10T05:44:18.186Z,18.16
2017-12-10T05:44:46.195Z,18.21
2017-12-10T05:45:14.300Z,18.21
2017-12-10T05:45:42.317Z,18.11
2017-12-10T05:46:10.274Z,18.11
2017-12-10T05:46:38.352Z,18.17
2017-12-10T05:47:06.251Z,18.11
2017-12-10T05:47:34.365Z,18.13
2017-12-10T05:48:02.241Z,18.13
2017-12-10T05:48:30.254Z,18.13
2017-12-10T05:48:58.349Z,18.1
2017-12-10T05:49:26.360Z,18.03
2017-12-10T05:49:54.275Z,18.11
2017-12-10T05:50:22.292Z,18.11
2017-12-10T05:50:50.412Z,18.1
2017-12-10T05:51:18.476Z,17.99
2017-12-10T05:51:46.601Z,18.05
2017-12-10T05:52:14.722Z,18.08
2017-12-10T05:52:42.728Z,18.08
2017-12-10T05:53:10.617Z,18.08
2017-12-10T05:53:38.697Z,18.06
2017-12-10T05:54:06.779Z,18.08
2017-12-10T05:54:34.713Z,18.01
2017-12-10T05:55:02.627Z,17.99
2017-12-10T05:55:30.630Z,18.01
2017-12-10T05:55:58.313Z,17.98
2017-12-10T05:56:26.300Z,17.96
2017-12-10T05:56:54.509Z,18.01
2017-12-10T05:57:22.525Z,18.02
2017-12-10T05:57:50.636Z,18.01
2017-12-10T05:58:18.740Z,17.9
2017-12-10T05:58:46.611Z,17.96
2017-12-10T05:59:14.714Z,17.95
2017-12-10T05:59:42.825Z,17.88
2017-12-10T06:00:10.817Z,17.84
2017-12-10T06:00:38.687Z,17.88
2017-12-10T06:01:06.749Z,17.84
2017-12-10T06:01:34.724Z,17.81
2017-12-10T06:02:02.835Z,17.79
2017-12-10T06:02:30.848Z,17.83